createdAt,value
2022-12-24T00:00:07.794Z,98824.50
2022-12-24T00:02:40.334Z,98830.75
2022-12-24T00:05:12.569Z,98837.78
2022-12-24T00:07:44.606Z,98823.99
2022-12-24T00:10:16.635Z,98827.45
2022-12-24T00:12:48.937Z,98820.58
2022-12-24T00:15:20.996Z,98813.60
2022-12-24T00:17:53.107Z,98811.92
2022-12-24T00:20:25.090Z,98806.79
2022-12-24T00:22:57.183Z,98804.35
2022-12-24T00:25:29.490Z,98816.48
2022-12-24T00:28:01.450Z,98815.50
2022-12-24T00:30:33.563Z,98825.03
2022-12-24T00:33:05.896Z,98824.98
2022-12-24T00:35:40.106Z,98823.30
2022-12-24T00:38:12.081Z,98827.57
2022-12-24T00:40:43.909Z,98830.11
2022-12-24T00:43:16.020Z,98816.99
2022-12-24T00:45:48.866Z,98836.80
2022-12-24T00:48:21.183Z,98834.70
2022-12-24T00:50:53.359Z,98835.63
2022-12-24T00:53:25.445Z,98842.44
2022-12-24T00:55:57.521Z,98852.55
2022-12-24T00:58:29.381Z,98841.59
2022-12-24T01:01:01.503Z,98843.36
2022-12-24T01:03:37.176Z,98841.39
2022-12-24T01:06:12.243Z,98848.27
2022-12-24T01:08:44.781Z,98826.91
2022-12-24T01:11:17.171Z,98833.91
2022-12-24T01:13:49.187Z,98833.22
2022-12-24T01:16:22.620Z,98836.86
2022-12-24T01:18:54.977Z,98837.84
2022-12-24T01:21:27.354Z,98845.63
2022-12-24T01:23:59.637Z,98833.63
2022-12-24T01:26:31.998Z,98832.01
2022-12-24T01:29:04.287Z,98834.55
2022-12-24T01:31:36.660Z,98832.92
2022-12-24T01:34:08.596Z,98832.19
2022-12-24T01:36:40.986Z,98832.52
2022-12-24T01:39:13.030Z,98832.13
2022-12-24T01:42:02.540Z,98830.58
2022-12-24T01:44:37.687Z,98840.11
2022-12-24T01:47:21.153Z,98834.22
2022-12-24T01:49:58.857Z,98832.72
2022-12-24T01:52:33.832Z,98834.40
2022-12-24T01:55:08.989Z,98839.59
2022-12-24T01:57:45.334Z,98839.53
2022-12-24T02:00:18.402Z,98836.05
2022-12-24T02:02:53.135Z,98845.58
2022-12-24T02:05:33.788Z,98854.23
2022-12-24T02:08:06.530Z,98843.75
2022-12-24T02:10:38.845Z,98854.02
2022-12-24T02:13:11.369Z,98851.42
2022-12-24T02:15:47.872Z,98855.70
2022-12-24T02:18:25.999Z,98853.03
2022-12-24T02:21:06.396Z,98862.55
2022-12-24T02:23:56.139Z,98862.39
2022-12-24T02:26:47.000Z,98852.86
2022-12-24T02:29:33.658Z,98861.41
2022-12-24T02:32:23.497Z,98863.95
2022-12-24T02:35:14.773Z,98870.82
2022-12-24T02:37:52.268Z,98865.56
2022-12-24T02:40:27.107Z,98862.97
2022-12-24T02:43:02.106Z,98869.72
2022-12-24T02:45:36.977Z,98865.44
2022-12-24T02:48:10.445Z,98864.52
2022-12-24T02:50:44.032Z,98864.58
2022-12-24T02:53:16.083Z,98873.36
2022-12-24T02:56:07.484Z,98860.52
2022-12-24T02:59:00.741Z,98860.70
2022-12-24T03:01:38.405Z,98853.83
2022-12-24T03:04:16.749Z,98855.57
2022-12-24T03:07:03.586Z,98848.64
2022-12-24T03:09:38.414Z,98853.89
2022-12-24T03:12:13.528Z,98853.83
2022-12-24T03:14:47.490Z,98851.17
2022-12-24T03:17:21.015Z,98852.00
2022-12-24T03:19:54.338Z,98842.34
2022-12-24T03:22:28.501Z,98846.61
2022-12-24T03:25:00.783Z,98844.84
2022-12-24T03:27:37.305Z,98838.82
2022-12-24T03:30:15.051Z,98848.17
2022-12-24T03:32:48.448Z,98857.64
2022-12-24T03:35:20.397Z,98852.45
2022-12-24T03:37:52.637Z,98854.12
2022-12-24T03:40:24.671Z,98849.91
2022-12-24T03:42:56.707Z,98847.38
2022-12-24T03:45:28.759Z,98854.28
2022-12-24T03:48:00.846Z,98854.19
2022-12-24T03:50:32.967Z,98851.59
2022-12-24T03:53:04.990Z,98852.39
2022-12-24T03:55:36.833Z,98858.34
2022-12-24T03:58:08.862Z,98860.88
2022-12-24T04:00:40.957Z,98849.66
2022-12-24T04:03:12.978Z,98851.47
2022-12-24T04:05:45.148Z,98843.67
2022-12-24T04:08:17.490Z,98853.24
2022-12-24T04:10:49.595Z,98844.59
2022-12-24T04:13:21.541Z,98853.30
2022-12-24T04:16:01.953Z,98847.38
2022-12-24T04:18:34.275Z,98849.91
2022-12-24T04:21:08.069Z,98844.72
2022-12-24T04:23:42.108Z,98843.09
2022-12-24T04:26:15.130Z,98835.30
2022-12-24T04:28:47.094Z,98844.78
2022-12-24T04:31:19.674Z,98848.36
2022-12-24T04:33:53.463Z,98838.82
2022-12-24T04:36:25.493Z,98845.82
2022-12-24T04:38:57.387Z,98838.03
2022-12-24T04:41:29.325Z,98823.48
2022-12-24T04:44:01.295Z,98827.13
2022-12-24T04:46:33.793Z,98825.50
2022-12-24T04:49:05.899Z,98829.02
2022-12-24T04:51:38.119Z,98836.11
2022-12-24T04:54:10.129Z,98829.20
2022-12-24T04:56:42.249Z,98827.52
2022-12-24T04:59:14.294Z,98829.42
2022-12-24T05:01:46.620Z,98834.55
2022-12-24T05:04:18.722Z,98827.74
2022-12-24T05:06:50.897Z,98827.01
2022-12-24T05:09:22.715Z,98825.39
2022-12-24T05:11:54.660Z,98821.05
2022-12-24T05:14:26.730Z,98827.92
2022-12-24T05:16:58.932Z,98820.98
2022-12-24T05:19:30.952Z,98825.20
2022-12-24T05:22:20.504Z,98812.22
2022-12-24T05:25:10.067Z,98822.33
2022-12-24T05:27:47.514Z,98812.73
2022-12-24T05:30:16.668Z,98815.91
2022-12-24T05:32:48.976Z,98822.78
2022-12-24T05:35:21.296Z,98808.88
2022-12-24T05:37:53.209Z,98807.07
2022-12-24T05:40:25.095Z,98801.75
2022-12-24T05:42:57.186Z,98802.58
2022-12-24T05:45:29.559Z,98805.88
2022-12-24T05:48:01.885Z,98811.92
2022-12-24T05:50:33.837Z,98804.13
2022-12-24T05:53:07.905Z,98813.66
2022-12-24T05:55:39.814Z,98808.41
2022-12-24T05:58:11.974Z,98810.12
2022-12-24T06:00:44.251Z,98804.00
2022-12-24T06:03:16.868Z,98809.20
2022-12-24T06:05:48.829Z,98810.12
2022-12-24T06:08:21.067Z,98811.92
2022-12-24T06:10:58.169Z,98805.97
2022-12-24T06:13:31.290Z,98804.25
2022-12-24T06:16:05.542Z,98804.25
2022-12-24T06:18:38.823Z,98803.49
2022-12-24T06:21:11.723Z,98803.49
2022-12-24T06:23:45.632Z,98801.14
2022-12-24T06:26:22.618Z,98798.55
2022-12-24T06:28:54.873Z,98800.27
2022-12-24T06:31:27.510Z,98803.68
2022-12-24T06:33:59.792Z,98800.20
2022-12-24T06:36:32.014Z,98801.88
2022-12-24T06:39:04.768Z,98804.35
2022-12-24T06:41:37.590Z,98804.25
2022-12-24T06:44:10.793Z,98804.25
2022-12-24T06:46:43.138Z,98806.79
2022-12-24T06:49:15.402Z,98801.53
2022-12-24T06:51:48.064Z,98799.73
2022-12-24T06:54:20.362Z,98801.34
2022-12-24T06:56:52.907Z,98798.74
2022-12-24T06:59:25.230Z,98798.68
2022-12-24T07:01:58.068Z,98786.52
2022-12-24T07:04:31.143Z,98788.28
2022-12-24T07:07:03.137Z,98792.75
2022-12-24T07:09:35.283Z,98795.29
2022-12-24T07:12:07.508Z,98798.81
2022-12-24T07:14:39.532Z,98796.97
2022-12-24T07:17:11.912Z,98793.61
2022-12-24T07:19:44.159Z,98794.59
2022-12-24T07:22:16.439Z,98795.35
2022-12-24T07:24:48.751Z,98795.42
2022-12-24T07:27:21.261Z,98796.14
2022-12-24T07:29:53.348Z,98796.14
2022-12-24T07:32:26.239Z,98797.89
2022-12-24T07:34:58.668Z,98793.67
2022-12-24T07:37:32.695Z,98799.73
2022-12-24T07:40:07.381Z,98798.81
2022-12-24T07:42:39.645Z,98786.64
2022-12-24T07:45:13.000Z,98794.37
2022-12-24T07:47:45.046Z,98789.17
2022-12-24T07:50:17.399Z,98790.03
2022-12-24T07:52:49.417Z,98794.30
2022-12-24T07:55:21.361Z,98798.68
2022-12-24T07:57:53.625Z,98787.43
2022-12-24T08:00:26.234Z,98789.11
2022-12-24T08:03:00.508Z,98791.64
2022-12-24T08:05:37.359Z,98794.11
2022-12-24T08:08:09.869Z,98788.92
2022-12-24T08:10:43.242Z,98791.52
2022-12-24T08:13:15.547Z,98789.74
2022-12-24T08:15:47.663Z,98789.84
2022-12-24T08:18:20.050Z,98789.84
2022-12-24T08:20:52.377Z,98789.84
2022-12-24T08:23:24.572Z,98788.92
2022-12-24T08:25:57.065Z,98795.03
2022-12-24T08:28:29.117Z,98790.59
2022-12-24T08:31:01.991Z,98792.44
2022-12-24T08:33:34.665Z,98789.84
2022-12-24T08:36:07.260Z,98788.98
2022-12-24T08:38:39.616Z,98789.84
2022-12-24T08:41:11.715Z,98785.40
2022-12-24T08:43:43.986Z,98786.38
2022-12-24T08:46:16.212Z,98785.53
2022-12-24T08:48:48.276Z,98788.13
2022-12-24T08:51:20.671Z,98771.55
2022-12-24T08:53:53.021Z,98780.33
2022-12-24T08:56:25.237Z,98785.40
2022-12-24T08:58:57.433Z,98785.40
2022-12-24T09:01:29.626Z,98776.84
2022-12-24T09:04:03.567Z,98779.45
2022-12-24T09:06:36.586Z,98782.80
2022-12-24T09:09:09.151Z,98777.47
2022-12-24T09:11:41.111Z,98770.38
2022-12-24T09:14:13.546Z,98776.36
2022-12-24T09:16:45.787Z,98772.84
2022-12-24T09:19:18.452Z,98782.31
2022-12-24T09:21:51.198Z,98773.66
2022-12-24T09:24:23.779Z,98770.17
2022-12-24T09:26:58.149Z,98763.20
2022-12-24T09:29:29.455Z,98759.78
2022-12-24T09:32:01.791Z,98761.46
2022-12-24T09:34:33.896Z,98755.34
2022-12-24T09:37:06.458Z,98755.27
2022-12-24T09:39:38.594Z,98755.27
2022-12-24T09:42:13.504Z,98755.27
2022-12-24T09:44:58.852Z,98744.02
2022-12-24T09:47:53.420Z,98751.75
2022-12-24T09:50:31.503Z,98751.75
2022-12-24T09:53:06.957Z,98743.27
2022-12-24T09:55:54.871Z,98751.98
2022-12-24T09:58:30.465Z,98754.72
2022-12-24T10:01:03.151Z,98747.84
2022-12-24T10:03:35.662Z,98762.58
2022-12-24T10:06:28.530Z,98763.69
2022-12-24T10:09:18.381Z,98751.62
2022-12-24T10:12:12.530Z,98756.88
2022-12-24T10:15:23.321Z,98751.75
2022-12-24T10:18:16.541Z,98754.58
2022-12-24T10:21:10.837Z,98755.62
2022-12-24T10:23:54.632Z,98753.22
2022-12-24T10:26:29.829Z,98759.46
2022-12-24T10:29:04.924Z,98757.78
2022-12-24T10:31:43.406Z,98765.77
2022-12-24T10:34:21.035Z,98763.39
2022-12-24T10:36:53.853Z,98760.98
2022-12-24T10:39:27.928Z,98750.72
2022-12-24T10:42:01.881Z,98760.34
2022-12-24T10:44:35.738Z,98751.70
2022-12-24T10:47:10.910Z,98752.74
2022-12-24T10:50:04.010Z,98760.53
2022-12-24T10:52:39.648Z,98762.49
2022-12-24T10:55:20.707Z,98755.74
2022-12-24T10:58:04.525Z,98754.89
2022-12-24T11:00:37.610Z,98757.30
2022-12-24T11:03:21.301Z,98760.81
2022-12-24T11:06:13.027Z,98767.69
2022-12-24T11:08:46.325Z,98764.45
2022-12-24T11:11:21.136Z,98763.66
2022-12-24T11:13:56.980Z,98781.83
2022-12-24T11:16:37.696Z,98774.95
2022-12-24T11:19:13.012Z,98785.41
2022-12-24T11:21:46.375Z,98779.23
2022-12-24T11:24:33.521Z,98779.45
2022-12-24T11:27:26.394Z,98788.45
2022-12-24T11:30:17.849Z,98788.78
2022-12-24T11:32:52.719Z,98789.87
2022-12-24T11:35:26.982Z,98787.28
2022-12-24T11:38:07.853Z,98789.02
2022-12-24T11:40:42.898Z,98795.24
2022-12-24T11:43:20.276Z,98796.16
2022-12-24T11:45:58.031Z,98797.08
2022-12-24T11:48:35.554Z,98815.12
2022-12-24T11:51:10.613Z,98810.76
2022-12-24T11:53:51.453Z,98808.22
2022-12-24T11:56:44.363Z,98808.31
2022-12-24T11:59:31.991Z,98826.33
2022-12-24T12:02:18.790Z,98826.27
2022-12-24T12:04:56.932Z,98827.18
2022-12-24T12:07:31.911Z,98825.56
2022-12-24T12:10:19.155Z,98829.83
2022-12-24T12:12:59.897Z,98830.80
2022-12-24T12:15:37.597Z,98844.70
2022-12-24T12:18:13.346Z,98836.91
2022-12-24T12:20:51.691Z,98842.05
2022-12-24T12:23:26.783Z,98845.41
2022-12-24T12:26:11.091Z,98851.30
2022-12-24T12:28:55.670Z,98848.80
2022-12-24T12:31:39.943Z,98859.95
2022-12-24T12:34:17.875Z,98853.84
2022-12-24T12:36:57.631Z,98856.44
2022-12-24T12:39:31.862Z,98854.70
2022-12-24T12:42:06.763Z,98854.70
2022-12-24T12:45:05.823Z,98872.37
2022-12-24T12:48:00.107Z,98872.80
2022-12-24T12:51:11.427Z,98875.45
2022-12-24T12:54:12.216Z,98880.70
2022-12-24T12:56:47.461Z,98878.11
2022-12-24T12:59:43.761Z,98881.62
2022-12-24T13:02:35.409Z,98893.63
2022-12-24T13:05:28.736Z,98891.03
2022-12-24T13:08:12.655Z,98890.17
2022-12-24T13:11:02.573Z,98893.63
2022-12-24T13:13:43.339Z,98893.56
2022-12-24T13:16:27.335Z,98902.92
2022-12-24T13:19:08.752Z,98904.72
2022-12-24T13:21:45.841Z,98913.36
2022-12-24T13:24:21.207Z,98911.36
2022-12-24T13:27:10.177Z,98921.09
2022-12-24T13:30:08.768Z,98922.71
2022-12-24T13:32:52.305Z,98934.01
2022-12-24T13:35:30.739Z,98930.55
2022-12-24T13:38:30.324Z,98940.02
2022-12-24T13:41:41.063Z,98942.56
2022-12-24T13:44:17.918Z,98940.63
2022-12-24T13:46:53.157Z,98951.75
2022-12-24T13:49:40.616Z,98942.14
2022-12-24T13:52:15.980Z,98951.55
2022-12-24T13:54:57.098Z,98946.08
2022-12-24T13:57:49.109Z,98945.22
2022-12-24T14:00:24.439Z,98963.39
2022-12-24T14:03:17.636Z,98955.43
2022-12-24T14:05:52.922Z,98965.02
2022-12-24T14:08:27.734Z,98973.61
2022-12-24T14:11:20.746Z,98979.52
2022-12-24T14:13:56.186Z,98983.84
2022-12-24T14:16:33.291Z,98990.75
2022-12-24T14:19:13.974Z,98984.77
2022-12-24T14:22:06.723Z,98988.27
2022-12-24T14:24:46.888Z,98989.24
2022-12-24T14:27:25.022Z,98995.63
2022-12-24T14:30:09.450Z,99006.45
2022-12-24T14:32:42.609Z,99012.47
2022-12-24T14:35:26.972Z,99017.75
2022-12-24T14:38:04.686Z,99016.03
2022-12-24T14:40:45.924Z,99023.77
2022-12-24T14:43:35.848Z,99016.72
2022-12-24T14:46:26.018Z,99021.00
2022-12-24T14:49:24.911Z,99019.98
2022-12-24T14:52:02.773Z,99028.54
2022-12-24T14:54:39.945Z,99031.02
2022-12-24T14:57:16.105Z,99026.85
2022-12-24T15:00:00.438Z,99035.56
2022-12-24T15:02:39.961Z,99037.12
2022-12-24T15:05:21.018Z,99038.02
2022-12-24T15:07:59.136Z,99048.55
2022-12-24T15:10:39.983Z,99050.34
2022-12-24T15:13:17.620Z,99058.27
2022-12-24T15:15:54.370Z,99053.08
2022-12-24T15:18:29.947Z,99053.91
2022-12-24T15:21:05.228Z,99069.32
2022-12-24T15:23:38.853Z,99060.50
2022-12-24T15:26:16.558Z,99064.67
2022-12-24T15:28:48.836Z,99061.88
2022-12-24T15:31:24.313Z,99067.02
2022-12-24T15:34:00.186Z,99065.33
2022-12-24T15:36:38.228Z,99069.61
2022-12-24T15:39:13.814Z,99079.09
2022-12-24T15:42:05.593Z,99073.07
2022-12-24T15:44:40.446Z,99074.81
2022-12-24T15:47:21.399Z,99074.81
2022-12-24T15:49:54.324Z,99085.20
2022-12-24T15:52:27.663Z,99080.00
2022-12-24T15:55:01.489Z,99098.84
2022-12-24T15:57:35.180Z,99097.91
2022-12-24T16:00:10.138Z,99101.34
2022-12-24T16:02:46.467Z,99105.62
2022-12-24T16:05:25.007Z,99111.73
2022-12-24T16:08:12.095Z,99109.98
2022-12-24T16:11:08.444Z,99110.05
2022-12-24T16:13:46.650Z,99119.58
2022-12-24T16:16:23.645Z,99117.64
2022-12-24T16:19:01.269Z,99123.75
2022-12-24T16:21:38.918Z,99122.02
2022-12-24T16:24:19.978Z,99125.52
2022-12-24T16:26:52.873Z,99128.84
2022-12-24T16:29:27.046Z,99134.14
2022-12-24T16:32:00.419Z,99137.19
2022-12-24T16:34:34.243Z,99140.86
2022-12-24T16:37:06.486Z,99146.22
2022-12-24T16:39:38.367Z,99143.71
2022-12-24T16:42:28.474Z,99148.91
2022-12-24T16:45:00.736Z,99157.58
2022-12-24T16:47:42.337Z,99154.10
2022-12-24T16:50:11.957Z,99158.38
2022-12-24T16:52:44.655Z,99167.81
2022-12-24T16:55:18.396Z,99166.79
2022-12-24T16:57:51.303Z,99168.53
2022-12-24T17:00:26.126Z,99179.67
2022-12-24T17:02:58.929Z,99169.28
2022-12-24T17:05:31.441Z,99177.91
2022-12-24T17:08:03.907Z,99180.70
2022-12-24T17:10:36.401Z,99179.84
2022-12-24T17:13:08.478Z,99188.55
2022-12-24T17:15:42.715Z,99189.45
2022-12-24T17:18:15.232Z,99191.20
2022-12-24T17:20:47.338Z,99188.55
2022-12-24T17:23:20.195Z,99200.67
2022-12-24T17:25:52.869Z,99197.36
2022-12-24T17:28:24.823Z,99206.89
2022-12-24T17:30:58.639Z,99209.44
2022-12-24T17:33:30.794Z,99217.23
2022-12-24T17:36:03.005Z,99217.42
2022-12-24T17:38:35.183Z,99217.58
2022-12-24T17:41:09.825Z,99218.44
2022-12-24T17:43:42.355Z,99230.67
2022-12-24T17:46:17.343Z,99237.69
2022-12-24T17:48:49.854Z,99241.17
2022-12-24T17:51:24.185Z,99242.84
2022-12-24T17:53:57.427Z,99241.06
2022-12-24T17:56:30.225Z,99245.53
2022-12-24T17:59:02.091Z,99251.56
2022-12-24T18:01:34.460Z,99256.66
2022-12-24T18:04:07.261Z,99268.91
2022-12-24T18:06:48.740Z,99269.06
2022-12-24T18:09:16.409Z,99269.17
2022-12-24T18:11:48.802Z,99270.75
2022-12-24T18:14:20.747Z,99286.34
2022-12-24T18:16:52.908Z,99288.06
2022-12-24T18:19:25.002Z,99294.70
2022-12-24T18:21:57.142Z,99295.80
2022-12-24T18:24:29.679Z,99303.70
2022-12-24T18:27:02.917Z,99307.25
2022-12-24T18:29:36.713Z,99311.53
2022-12-24T18:32:09.848Z,99304.70
2022-12-24T18:34:41.784Z,99315.92
2022-12-24T18:37:13.802Z,99316.95
2022-12-24T18:39:46.143Z,99329.13
2022-12-24T18:42:19.119Z,99324.80
2022-12-24T18:44:51.737Z,99332.59
2022-12-24T18:47:25.558Z,99341.39
2022-12-24T18:49:57.779Z,99330.28
2022-12-24T18:52:31.355Z,99338.03
2022-12-24T18:55:03.863Z,99341.03
2022-12-24T18:57:36.333Z,99347.75
2022-12-24T19:00:09.232Z,99358.09
2022-12-24T19:02:41.302Z,99357.73
2022-12-24T19:05:14.944Z,99359.95
2022-12-24T19:07:47.187Z,99363.78
2022-12-24T19:10:19.164Z,99369.13
2022-12-24T19:12:51.199Z,99380.44
2022-12-24T19:15:23.093Z,99384.80
2022-12-24T19:17:59.558Z,99378.78
2022-12-24T19:20:31.927Z,99387.47
2022-12-24T19:23:03.813Z,99393.63
2022-12-24T19:25:36.473Z,99398.81
2022-12-24T19:28:11.128Z,99407.34
2022-12-24T19:30:43.736Z,99412.41
2022-12-24T19:33:15.894Z,99410.25
2022-12-24T19:35:47.747Z,99414.37
2022-12-24T19:38:19.859Z,99413.51
2022-12-24T19:40:51.984Z,99426.48
2022-12-24T19:43:24.303Z,99422.35
2022-12-24T19:46:00.602Z,99418.30
2022-12-24T19:48:32.936Z,99423.75
2022-12-24T19:51:07.002Z,99426.16
2022-12-24T19:53:39.928Z,99433.64
2022-12-24T19:56:13.487Z,99438.22
2022-12-24T19:58:45.570Z,99439.41
2022-12-24T20:01:20.037Z,99435.41
2022-12-24T20:03:53.462Z,99445.19
2022-12-24T20:06:28.431Z,99453.13
2022-12-24T20:09:02.318Z,99458.41
2022-12-24T20:11:35.137Z,99453.30
2022-12-24T20:14:07.909Z,99452.53
2022-12-24T20:16:40.231Z,99460.23
2022-12-24T20:19:15.117Z,99458.67
2022-12-24T20:21:47.326Z,99469.09
2022-12-24T20:24:19.513Z,99465.77
2022-12-24T20:26:51.460Z,99471.11
2022-12-24T20:29:23.603Z,99476.35
2022-12-24T20:31:55.922Z,99466.95
2022-12-24T20:34:27.877Z,99470.53
2022-12-24T20:36:59.844Z,99477.53
2022-12-24T20:39:32.198Z,99476.73
2022-12-24T20:42:04.762Z,99484.62
2022-12-24T20:44:36.708Z,99490.74
2022-12-24T20:47:08.631Z,99497.73
2022-12-24T20:49:40.479Z,99483.13
2022-12-24T20:52:12.742Z,99496.90
2022-12-24T20:54:45.010Z,99500.44
2022-12-24T20:57:21.752Z,99510.78
2022-12-24T20:59:50.814Z,99509.09
2022-12-24T21:02:22.925Z,99512.63
2022-12-24T21:05:01.482Z,99517.86
2022-12-24T21:07:28.640Z,99525.56
2022-12-24T21:10:00.635Z,99534.09
2022-12-24T21:12:52.971Z,99533.92
2022-12-24T21:15:27.932Z,99540.64
2022-12-24T21:18:00.644Z,99538.77
2022-12-24T21:20:32.675Z,99548.17
2022-12-24T21:23:05.946Z,99544.59
2022-12-24T21:25:38.047Z,99547.00
2022-12-24T21:28:11.463Z,99558.96
2022-12-24T21:30:43.656Z,99557.91
2022-12-24T21:33:15.849Z,99557.66
2022-12-24T21:35:47.906Z,99561.08
2022-12-24T21:38:19.920Z,99567.83
2022-12-24T21:41:03.783Z,99560.77
2022-12-24T21:43:36.380Z,99558.91
2022-12-24T21:46:10.244Z,99563.92
2022-12-24T21:49:00.050Z,99568.97
2022-12-24T21:51:32.408Z,99572.26
2022-12-24T21:54:21.888Z,99569.53
2022-12-24T21:57:13.556Z,99575.41
2022-12-24T21:59:46.441Z,99576.17
2022-12-24T22:02:18.781Z,99580.42
2022-12-24T22:04:50.988Z,99577.84
2022-12-24T22:07:43.453Z,99576.80
2022-12-24T22:10:34.033Z,99581.22
2022-12-24T22:13:07.644Z,99584.58
2022-12-24T22:15:45.431Z,99584.47
2022-12-24T22:18:20.074Z,99594.84
2022-12-24T22:20:52.430Z,99596.60
2022-12-24T22:23:24.296Z,99604.80
2022-12-24T22:25:56.251Z,99600.78
2022-12-24T22:28:30.031Z,99605.07
2022-12-24T22:31:02.522Z,99610.19
2022-12-24T22:33:36.317Z,99605.80
2022-12-24T22:36:10.362Z,99613.41
2022-12-24T22:38:44.400Z,99620.28
2022-12-24T22:41:16.532Z,99617.86
2022-12-24T22:43:49.897Z,99624.88
2022-12-24T22:46:22.172Z,99634.48
2022-12-24T22:48:54.804Z,99642.30
2022-12-24T22:51:26.768Z,99647.48
2022-12-24T22:53:58.826Z,99647.45
2022-12-24T22:56:35.530Z,99659.64
2022-12-24T22:59:05.000Z,99662.11
2022-12-24T23:01:40.018Z,99668.22
2022-12-24T23:04:12.802Z,99670.91
2022-12-24T23:06:44.928Z,99677.89
2022-12-24T23:09:18.246Z,99682.17
2022-12-24T23:11:50.288Z,99684.70
2022-12-24T23:14:41.378Z,99685.57
2022-12-24T23:17:13.635Z,99694.31
2022-12-24T23:19:45.703Z,99693.44
2022-12-24T23:22:17.940Z,99703.08
2022-12-24T23:24:49.940Z,99711.62
2022-12-24T23:27:22.356Z,99712.70
2022-12-24T23:29:54.288Z,99713.91
2022-12-24T23:32:26.544Z,99714.70
2022-12-24T23:34:58.784Z,99723.41
2022-12-24T23:37:35.405Z,99723.52
2022-12-24T23:40:06.645Z,99726.98
2022-12-24T23:42:38.870Z,99717.72
2022-12-24T23:45:11.125Z,99728.14
2022-12-24T23:47:43.489Z,99743.48
2022-12-24T23:50:15.564Z,99740.25
2022-12-24T23:52:47.801Z,99744.80
2022-12-24T23:55:19.929Z,99756.94
2022-12-24T23:57:51.905Z,99763.88
